Afutara Aerodrome


Codes: AGAF/AFT
Name: Afutara Aerodrome
City: Bila
Country: Solomon Islands
Elevation: 23 ft.
Wikipedia:

Photos at Afutara Aerodrome


   Photos courtesy of SpottingLog. You can add your own sightings and photos by signing up for a free trial today.



No photos found.

Weather at Afutara Aerodrome


Time (UTC)DescriptionTempratureWindCloud coverageVisibilityPressureHumidity
26-Jun-2024 00:00Light Rain27°C11 mph, E98%10000m1013hPa87%
26-Jun-2024 03:00Light Rain28°C9 mph, E94%10000m1011hPa87%
26-Jun-2024 06:00Light Rain27°C9 mph, E92%10000m1010hPa90%
26-Jun-2024 09:00Light Rain26°C7 mph, E99%10000m1012hPa92%
26-Jun-2024 12:00Light Rain26°C7 mph, E87%10000m1012hPa92%
26-Jun-2024 15:00Light Rain26°C7 mph, E81%10000m1011hPa93%
26-Jun-2024 18:00Light Rain26°C7 mph, SE88%10000m1010hPa92%
26-Jun-2024 21:00Light Rain26°C7 mph, E100%10000m1012hPa88%
27-Jun-2024 00:00Overcast Clouds30°C11 mph, E97%10000m1012hPa71%
27-Jun-2024 03:00Light Rain29°C9 mph, E75%10000m1010hPa75%
27-Jun-2024 06:00Light Rain27°C9 mph, E87%10000m1010hPa85%
27-Jun-2024 09:00Light Rain26°C7 mph, E100%10000m1011hPa89%
27-Jun-2024 12:00Light Rain25°C4 mph, E100%10000m1012hPa93%
27-Jun-2024 15:00Light Rain25°C4 mph, E100%10000m1011hPa90%
27-Jun-2024 18:00Light Rain25°C7 mph, E99%10000m1011hPa93%
27-Jun-2024 21:00Light Rain26°C4 mph, E93%10000m1012hPa91%
28-Jun-2024 00:00Light Rain29°C9 mph, SE98%10000m1012hPa74%
28-Jun-2024 03:00Light Rain30°C9 mph, SE100%10000m1010hPa72%
28-Jun-2024 06:00Light Rain27°C7 mph, E83%10000m1010hPa84%
28-Jun-2024 09:00Light Rain25°C7 mph, E72%10000m1012hPa93%
28-Jun-2024 12:00Light Rain25°C7 mph, E86%10000m1012hPa94%
28-Jun-2024 15:00Light Rain25°C7 mph, E100%10000m1010hPa95%
28-Jun-2024 18:00Light Rain26°C7 mph, E100%10000m1010hPa94%
28-Jun-2024 21:00Moderate Rain26°C2 mph, SE100%3017m1012hPa95%
29-Jun-2024 00:00Heavy Intensity Rain26°C4 mph, E100%10000m1013hPa94%
29-Jun-2024 03:00Heavy Intensity Rain24°C4 mph, E100%2325m1010hPa96%
29-Jun-2024 06:00Heavy Intensity Rain24°C2 mph, E100%4786m1010hPa99%
29-Jun-2024 09:00Moderate Rain24°C2 mph, SE100%10000m1013hPa97%
29-Jun-2024 12:00Light Rain24°C2 mph, SE100%4500m1012hPa97%
29-Jun-2024 15:00Heavy Intensity Rain24°C2 mph, SE100%367m1011hPa99%
29-Jun-2024 18:00Moderate Rain24°C2 mph, NW100%4039m1010hPa98%
29-Jun-2024 21:00Very Heavy Rain25°C4 mph, NW100%1553m1012hPa99%
30-Jun-2024 00:00Moderate Rain25°C2 mph, E100%10000m1012hPa97%
30-Jun-2024 03:00Light Rain26°C4 mph, E100%10000m1010hPa93%
30-Jun-2024 06:00Light Rain26°C4 mph, E100%10000m1010hPa94%
30-Jun-2024 09:00Light Rain25°C4 mph, E100%10000m1011hPa95%
30-Jun-2024 12:00Overcast Clouds25°C4 mph, E100%10000m1011hPa96%
30-Jun-2024 15:00Light Rain25°C4 mph, E100%10000m1010hPa96%
30-Jun-2024 18:00Light Rain25°C4 mph, E100%10000m1010hPa96%
30-Jun-2024 21:00Light Rain26°C4 mph, E98%10000m1012hPa95%